Accueil
METAR-TAF:

METAR-TAF

Aéroports :

Aéroport international Martinique Aimé Césaire

Fort-de-France, Martinique

latitude: 14-36N, longitude: 061-00W, altitude: 5 m

Observation

Le bulletin a été fait il y a 20 minutes, à 22:30 UTC
Vent 5 kt de est/sud-est
Température 26°C
Humidité 84%
Pression 1009 hPa
Visibilité 10 km ou plus

METAR: TFFF 212230Z AUTO 12005KT 9999 FEW042/// BKN060/// OVC072/// ///CB 26/23 Q1009 TEMPO 4000 SHRA

Heure: 18:50 (22:50 UTC)

Prévision

Le bulletin a été fait il y a 5 heures et 50 minutes, à 17:00 UTC
Prévision valable du 21 à 18 UTC au 22 à 18 UTC
Vent 8 kt de est
Visibilité 10 km ou plus
Nuages épars à une hauteur de 2500 ft
Temporairement
du 21 à 18 UTC au 22 à 12 UTC
Visibilité: 4000 m
Nuages épars à une hauteur de 1800 ft, Cumulus congestus.
averses de pluie

TAF: TFFF 211700Z 2118/2218 10008KT 9999 SCT025 TEMPO 2118/2212 4000 SHRA SCT018TCU

Observations et prévisions météorologiques de plus de 4000 aéroports (messages METAR et TAF).

Les stations disponibles sont représentées par des disques jaunes et rouges sur la carte.

Passer la souris dessus pour voir le nom de la station.

Cliquer dessus pour voir les observations et prévisions météorologiques.

Pour changer de carte: cliquez sur les boutons verts avec une croix noire pour zoomer, sur le bouton vert avec un tiret pour effectuer un zoom arrière, ou sur les flèches vertes pour les cartes adjacentes.


METAR-TAF: